createdAt,value
2022-12-26T00:01:27.154Z,42.48
2022-12-26T00:04:50.780Z,41.88
2022-12-26T00:08:02.692Z,41.85
2022-12-26T00:11:20.761Z,43.80
2022-12-26T00:14:37.095Z,42.45
2022-12-26T00:17:53.379Z,42.83
2022-12-26T00:21:10.439Z,41.98
2022-12-26T00:24:26.650Z,39.70
2022-12-26T00:27:43.775Z,41.45
2022-12-26T00:31:00.117Z,38.53
2022-12-26T00:34:17.941Z,40.78
2022-12-26T00:37:34.095Z,43.13
2022-12-26T00:40:50.415Z,41.85
2022-12-26T00:44:06.900Z,42.28
2022-12-26T00:47:23.302Z,41.20
2022-12-26T00:50:39.347Z,40.78
2022-12-26T00:53:55.700Z,41.25
2022-12-26T00:57:11.960Z,42.83
2022-12-26T01:00:28.955Z,39.43
2022-12-26T01:03:45.477Z,41.23
2022-12-26T01:07:01.877Z,41.70
2022-12-26T01:10:20.727Z,39.13
2022-12-26T01:13:36.912Z,39.60
2022-12-26T01:16:54.553Z,38.68
2022-12-26T01:20:12.319Z,38.58
2022-12-26T01:23:28.512Z,39.83
2022-12-26T01:26:44.660Z,39.73
2022-12-26T01:30:01.564Z,38.05
2022-12-26T01:33:17.854Z,40.75
2022-12-26T01:36:33.979Z,40.70
2022-12-26T01:39:50.668Z,41.35
2022-12-26T01:43:07.775Z,41.08
2022-12-26T01:46:27.287Z,39.68
2022-12-26T01:49:47.075Z,39.50
2022-12-26T01:53:07.832Z,40.70
2022-12-26T01:56:27.742Z,39.10
2022-12-26T01:59:47.955Z,38.20
2022-12-26T02:03:18.221Z,39.33
2022-12-26T02:06:34.901Z,38.38
2022-12-26T02:09:51.779Z,38.90
2022-12-26T02:13:08.657Z,39.03
2022-12-26T02:16:26.530Z,38.95
2022-12-26T02:19:48.731Z,39.33
2022-12-26T02:23:34.778Z,41.15
2022-12-26T02:27:26.781Z,38.00
2022-12-26T02:30:51.726Z,36.58
2022-12-26T02:34:13.527Z,36.80
2022-12-26T02:37:41.006Z,38.33
2022-12-26T02:41:05.416Z,37.30
2022-12-26T02:44:40.706Z,38.28
2022-12-26T02:48:03.130Z,37.05
2022-12-26T02:51:41.025Z,37.95
2022-12-26T02:55:17.079Z,36.63
2022-12-26T02:58:51.096Z,34.60
2022-12-26T03:02:24.883Z,31.98
2022-12-26T03:05:59.429Z,31.83
2022-12-26T03:09:34.135Z,30.65
2022-12-26T03:13:20.485Z,27.30
2022-12-26T03:16:52.723Z,28.40
2022-12-26T03:20:14.983Z,30.25
2022-12-26T03:23:32.248Z,29.10
2022-12-26T03:26:54.347Z,30.45
2022-12-26T03:30:25.852Z,31.55
2022-12-26T03:33:59.131Z,31.80
2022-12-26T03:37:48.869Z,30.03
2022-12-26T03:41:25.204Z,30.30
2022-12-26T03:44:59.787Z,28.78
2022-12-26T03:48:37.010Z,29.68
2022-12-26T03:52:11.783Z,28.80
2022-12-26T03:55:48.314Z,28.35
2022-12-26T03:59:24.337Z,27.15
2022-12-26T04:02:57.521Z,26.40
2022-12-26T04:06:33.867Z,26.08
2022-12-26T04:10:09.739Z,27.20
2022-12-26T04:13:44.226Z,27.30
2022-12-26T04:17:19.977Z,26.65
2022-12-26T04:20:44.510Z,27.18
2022-12-26T04:24:26.936Z,25.85
2022-12-26T04:27:57.214Z,26.80
2022-12-26T04:31:33.355Z,25.85
2022-12-26T04:35:08.522Z,26.58
2022-12-26T04:38:44.849Z,27.30
2022-12-26T04:42:17.378Z,26.78
2022-12-26T04:45:34.354Z,26.00
2022-12-26T04:49:10.159Z,25.65
2022-12-26T04:52:26.410Z,25.30
2022-12-26T04:55:43.234Z,27.03
2022-12-26T04:59:00.389Z,25.45
2022-12-26T05:02:31.806Z,27.28
2022-12-26T05:06:10.329Z,25.18
2022-12-26T05:09:40.820Z,25.75
2022-12-26T05:12:57.814Z,24.90
2022-12-26T05:16:29.290Z,25.28
2022-12-26T05:19:59.969Z,24.43
2022-12-26T05:23:39.522Z,25.18
2022-12-26T05:27:09.862Z,26.28
2022-12-26T05:30:26.267Z,31.15
2022-12-26T05:33:56.786Z,25.58
2022-12-26T05:37:12.985Z,24.93
2022-12-26T05:40:29.258Z,24.23
2022-12-26T05:43:45.381Z,24.68
2022-12-26T05:47:02.560Z,25.70
2022-12-26T05:50:19.486Z,24.65
2022-12-26T05:53:35.880Z,23.98
2022-12-26T05:56:53.602Z,25.30
2022-12-26T06:00:10.420Z,24.03
2022-12-26T06:03:30.325Z,24.83
2022-12-26T06:06:50.139Z,23.45
2022-12-26T06:10:08.117Z,23.88
2022-12-26T06:13:24.283Z,25.10
2022-12-26T06:16:42.945Z,24.40
2022-12-26T06:19:59.281Z,23.85
2022-12-26T06:23:17.167Z,23.93
2022-12-26T06:26:45.187Z,23.53
2022-12-26T06:30:02.407Z,23.80
2022-12-26T06:33:19.654Z,23.93
2022-12-26T06:36:37.451Z,23.70
2022-12-26T06:39:54.170Z,24.00
2022-12-26T06:43:11.606Z,24.78
2022-12-26T06:46:30.686Z,25.23
2022-12-26T06:49:46.973Z,23.28
2022-12-26T06:53:03.639Z,23.55
2022-12-26T06:56:26.040Z,24.15
2022-12-26T06:59:42.832Z,23.30
2022-12-26T07:03:04.885Z,24.00
2022-12-26T07:06:28.442Z,24.35
2022-12-26T07:09:44.515Z,23.35
2022-12-26T07:13:00.919Z,23.00
2022-12-26T07:16:17.740Z,23.73
2022-12-26T07:19:33.989Z,25.73
2022-12-26T07:22:50.073Z,25.25
2022-12-26T07:26:06.602Z,27.68
2022-12-26T07:29:24.318Z,26.33
2022-12-26T07:32:40.454Z,26.80
2022-12-26T07:35:57.014Z,24.83
2022-12-26T07:39:13.436Z,25.58
2022-12-26T07:42:31.534Z,24.90
2022-12-26T07:45:47.708Z,26.23
2022-12-26T07:49:05.391Z,25.08
2022-12-26T07:52:22.193Z,25.73
2022-12-26T07:55:38.397Z,26.48
2022-12-26T07:58:57.963Z,26.05
2022-12-26T08:02:15.996Z,29.10
2022-12-26T08:05:32.400Z,28.55
2022-12-26T08:08:51.453Z,29.73
2022-12-26T08:12:06.770Z,30.20
2022-12-26T08:15:23.994Z,32.40
2022-12-26T08:18:40.180Z,30.40
2022-12-26T08:21:56.285Z,29.28
2022-12-26T08:25:16.832Z,29.00
2022-12-26T08:28:33.023Z,31.13
2022-12-26T08:31:50.961Z,31.35
2022-12-26T08:35:07.185Z,31.78
2022-12-26T08:38:26.150Z,32.80
2022-12-26T08:41:44.026Z,33.80
2022-12-26T08:45:00.266Z,34.28
2022-12-26T08:48:17.182Z,33.53
2022-12-26T08:51:34.486Z,35.90
2022-12-26T08:54:50.638Z,36.10
2022-12-26T08:58:06.782Z,34.18
2022-12-26T09:01:26.106Z,57.03
2022-12-26T09:04:44.779Z,37.65
2022-12-26T09:08:01.341Z,34.20
2022-12-26T09:11:20.831Z,34.38
2022-12-26T09:17:51.072Z,33.03
2022-12-26T09:21:17.637Z,30.63
2022-12-26T09:24:36.723Z,30.63
2022-12-26T09:27:59.025Z,29.38
2022-12-26T09:34:29.799Z,29.23
2022-12-26T09:37:46.089Z,28.38
2022-12-26T09:41:13.206Z,27.83
2022-12-26T09:44:33.838Z,28.93
2022-12-26T09:47:57.415Z,31.93
2022-12-26T09:51:16.557Z,33.93
2022-12-26T09:54:38.735Z,34.25
2022-12-26T09:57:58.850Z,33.40
2022-12-26T10:01:21.104Z,34.03
2022-12-26T10:04:39.823Z,29.55
2022-12-26T10:08:00.878Z,29.55
2022-12-26T10:11:23.477Z,28.60
2022-12-26T10:14:47.288Z,28.73
2022-12-26T10:18:09.841Z,26.35
2022-12-26T10:21:37.057Z,28.08
2022-12-26T10:24:55.706Z,27.03
2022-12-26T10:28:14.293Z,26.28
2022-12-26T10:31:37.883Z,26.83
2022-12-26T10:34:57.013Z,68.85
2022-12-26T10:38:25.581Z,34.60
2022-12-26T10:41:43.815Z,26.83
2022-12-26T10:44:59.967Z,26.48
2022-12-26T10:48:19.076Z,25.80
2022-12-26T10:51:38.958Z,24.53
2022-12-26T10:55:28.857Z,26.10
2022-12-26T10:58:28.340Z,24.38
2022-12-26T11:01:48.489Z,22.78
2022-12-26T11:05:57.503Z,23.60
2022-12-26T11:08:43.826Z,23.93
2022-12-26T11:11:59.719Z,23.38
2022-12-26T11:15:25.677Z,24.15
2022-12-26T11:18:54.213Z,27.83
2022-12-26T11:22:35.016Z,25.90
2022-12-26T11:25:59.393Z,26.55
2022-12-26T11:29:22.904Z,28.10
2022-12-26T11:32:39.336Z,28.78
2022-12-26T11:36:03.549Z,28.70
2022-12-26T11:39:30.323Z,29.25
2022-12-26T11:42:47.117Z,28.90
2022-12-26T11:46:03.874Z,28.68
2022-12-26T11:49:30.822Z,28.93
2022-12-26T11:52:52.521Z,28.20
2022-12-26T11:56:12.273Z,27.53
2022-12-26T11:59:30.767Z,29.08
2022-12-26T12:02:48.784Z,25.35
2022-12-26T12:06:11.388Z,14.33
2022-12-26T12:09:34.110Z,12.65
2022-12-26T12:12:55.238Z,8.65
2022-12-26T12:16:16.958Z,6.83
2022-12-26T12:19:56.195Z,6.65
2022-12-26T12:26:40.151Z,5.18
2022-12-26T12:30:09.971Z,5.05
2022-12-26T12:33:40.893Z,5.08
2022-12-26T12:37:07.733Z,4.93
2022-12-26T12:40:35.583Z,4.85
2022-12-26T12:43:58.230Z,4.48
2022-12-26T12:47:20.112Z,4.95
2022-12-26T12:50:41.727Z,4.60
2022-12-26T12:54:31.784Z,5.28
2022-12-26T12:57:55.415Z,4.78
2022-12-26T13:01:15.729Z,22.53
2022-12-26T13:04:37.662Z,9.50
2022-12-26T13:07:58.293Z,6.00
2022-12-26T13:11:20.563Z,6.90
2022-12-26T13:14:41.417Z,22.08
2022-12-26T13:18:03.773Z,26.75
2022-12-26T13:21:22.873Z,28.95
2022-12-26T13:24:46.425Z,28.65
2022-12-26T13:28:08.548Z,27.65
2022-12-26T13:31:25.168Z,28.90
2022-12-26T13:34:41.614Z,28.10
2022-12-26T13:38:06.349Z,27.05
2022-12-26T13:41:40.285Z,27.58
2022-12-26T13:44:58.285Z,28.90
2022-12-26T13:48:46.297Z,27.85
2022-12-26T13:52:08.547Z,28.88
2022-12-26T13:55:52.920Z,29.20
2022-12-26T13:59:15.353Z,30.35
2022-12-26T14:03:20.759Z,30.73
2022-12-26T14:06:58.093Z,30.75
2022-12-26T14:10:23.252Z,32.63
2022-12-26T14:13:57.469Z,31.73
2022-12-26T14:17:31.035Z,30.50
2022-12-26T14:20:56.963Z,30.55
2022-12-26T14:24:26.918Z,28.90
2022-12-26T14:27:51.008Z,30.50
2022-12-26T14:31:22.593Z,29.58
2022-12-26T14:34:53.681Z,30.20
2022-12-26T14:38:21.051Z,30.10
2022-12-26T14:42:07.281Z,30.80
2022-12-26T14:45:48.015Z,29.20
2022-12-26T14:49:24.587Z,27.88
2022-12-26T14:52:47.347Z,27.18
2022-12-26T14:56:07.581Z,27.20
2022-12-26T14:59:40.226Z,27.60
2022-12-26T15:03:03.128Z,29.48
2022-12-26T15:07:20.895Z,29.13
2022-12-26T15:11:17.130Z,28.55
2022-12-26T15:15:18.414Z,28.25
2022-12-26T15:19:25.741Z,15.23
2022-12-26T15:23:56.927Z,23.35
2022-12-26T15:27:44.759Z,21.77
2022-12-26T15:31:23.464Z,19.88
2022-12-26T15:35:13.826Z,19.25
2022-12-26T15:38:40.359Z,19.48
2022-12-26T15:42:01.651Z,19.28
2022-12-26T15:45:31.679Z,18.18
2022-12-26T15:49:05.384Z,17.93
2022-12-26T15:52:28.992Z,19.58
2022-12-26T15:56:05.104Z,32.18
2022-12-26T16:00:10.378Z,22.20
2022-12-26T16:03:40.677Z,21.05
2022-12-26T16:07:24.983Z,20.48
2022-12-26T16:10:44.133Z,22.60
2022-12-26T16:14:09.344Z,21.83
2022-12-26T16:17:33.231Z,22.50
2022-12-26T16:21:04.537Z,23.00
2022-12-26T16:24:23.341Z,20.95
2022-12-26T16:27:40.913Z,21.48
2022-12-26T16:30:56.995Z,21.98
2022-12-26T16:34:18.853Z,24.48
2022-12-26T16:37:39.987Z,23.28
2022-12-26T16:41:00.058Z,22.23
2022-12-26T16:44:37.833Z,21.75
2022-12-26T16:47:55.060Z,21.50
2022-12-26T16:51:23.573Z,24.05
2022-12-26T16:54:46.924Z,23.80
2022-12-26T16:58:07.442Z,23.18
2022-12-26T17:01:29.588Z,24.53
2022-12-26T17:04:46.436Z,19.10
2022-12-26T17:08:05.930Z,24.10
2022-12-26T17:14:42.694Z,18.03
2022-12-26T17:18:02.613Z,22.25
2022-12-26T17:21:36.492Z,21.95
2022-12-26T17:24:53.972Z,23.65
2022-12-26T17:28:40.280Z,24.18
2022-12-26T17:32:01.542Z,16.53
2022-12-26T17:35:26.347Z,12.63
2022-12-26T17:38:45.209Z,9.85
2022-12-26T17:42:06.512Z,8.83
2022-12-26T17:45:30.258Z,8.70
2022-12-26T17:48:46.569Z,11.30
2022-12-26T17:52:11.406Z,14.88
2022-12-26T17:55:32.125Z,12.30
2022-12-26T17:58:50.877Z,10.15
2022-12-26T18:02:07.277Z,8.78
2022-12-26T18:05:27.016Z,8.65
2022-12-26T18:08:46.758Z,8.63
2022-12-26T18:12:05.523Z,8.18
2022-12-26T18:15:22.253Z,8.25
2022-12-26T18:18:43.687Z,7.75
2022-12-26T18:21:59.983Z,7.88
2022-12-26T18:25:19.625Z,8.03
2022-12-26T18:28:36.450Z,7.93
2022-12-26T18:31:53.062Z,6.80
2022-12-26T18:35:14.019Z,7.65
2022-12-26T18:38:32.664Z,7.80
2022-12-26T18:41:54.391Z,7.63
2022-12-26T18:45:12.909Z,26.63
2022-12-26T18:48:32.737Z,31.45
2022-12-26T18:51:49.068Z,11.93
2022-12-26T18:55:05.457Z,8.80
2022-12-26T18:58:22.551Z,7.98
2022-12-26T19:01:38.755Z,7.90
2022-12-26T19:04:55.782Z,7.88
2022-12-26T19:08:12.664Z,7.45
2022-12-26T19:11:29.388Z,7.55
2022-12-26T19:14:45.892Z,7.55
2022-12-26T19:18:06.072Z,7.55
2022-12-26T19:21:25.379Z,6.93
2022-12-26T19:27:57.049Z,30.93
2022-12-26T19:31:19.163Z,75.53
2022-12-26T19:34:35.736Z,13.65
2022-12-26T19:37:52.534Z,9.15
2022-12-26T19:41:14.566Z,7.60
2022-12-26T19:44:37.216Z,7.58
2022-12-26T19:47:58.939Z,7.35
2022-12-26T19:51:18.973Z,7.28
2022-12-26T19:54:35.326Z,7.68
2022-12-26T19:57:51.418Z,7.25
2022-12-26T20:01:15.176Z,7.00
2022-12-26T20:04:31.545Z,7.60
2022-12-26T20:07:47.930Z,7.98
2022-12-26T20:11:04.347Z,8.33
2022-12-26T20:14:23.504Z,8.03
2022-12-26T20:21:00.979Z,8.23
2022-12-26T20:24:21.863Z,8.80
2022-12-26T20:27:41.570Z,8.85
2022-12-26T20:31:11.500Z,9.15
2022-12-26T20:34:27.100Z,11.23
2022-12-26T20:37:43.604Z,8.45
2022-12-26T20:41:00.128Z,8.23
2022-12-26T20:44:19.366Z,9.23
2022-12-26T20:47:35.979Z,8.05
2022-12-26T20:50:54.102Z,8.93
2022-12-26T20:54:11.807Z,9.98
2022-12-26T20:57:29.954Z,8.53
2022-12-26T21:00:47.908Z,7.85
2022-12-26T21:04:07.527Z,8.75
2022-12-26T21:07:24.015Z,8.35
2022-12-26T21:10:40.585Z,8.63
2022-12-26T21:14:00.207Z,8.75
2022-12-26T21:17:20.049Z,8.75
2022-12-26T21:20:36.944Z,8.00
2022-12-26T21:23:55.110Z,8.93
2022-12-26T21:27:12.412Z,8.35
2022-12-26T21:30:28.847Z,9.03
2022-12-26T21:33:46.113Z,8.85
2022-12-26T21:37:16.738Z,8.75
2022-12-26T21:40:33.184Z,9.28
2022-12-26T21:43:50.727Z,8.95
2022-12-26T21:47:08.745Z,8.53
2022-12-26T21:50:25.482Z,8.05
2022-12-26T21:53:42.385Z,9.38
2022-12-26T21:56:59.138Z,9.13
2022-12-26T22:00:19.032Z,9.70
2022-12-26T22:03:51.504Z,10.25
2022-12-26T22:07:07.675Z,10.88
2022-12-26T22:10:38.780Z,10.38
2022-12-26T22:13:55.147Z,10.08
2022-12-26T22:17:11.508Z,9.98
2022-12-26T22:20:27.791Z,10.25
2022-12-26T22:23:50.341Z,9.93
2022-12-26T22:27:06.772Z,9.98
2022-12-26T22:30:23.720Z,10.15
2022-12-26T22:33:40.921Z,10.28
2022-12-26T22:36:57.306Z,10.28
2022-12-26T22:40:16.245Z,10.85
2022-12-26T22:43:33.107Z,10.00
2022-12-26T22:46:50.438Z,10.18
2022-12-26T22:50:07.055Z,9.63
2022-12-26T22:53:23.517Z,10.25
2022-12-26T22:56:40.800Z,10.05
2022-12-26T23:00:08.659Z,10.63
2022-12-26T23:03:18.010Z,10.18
2022-12-26T23:06:38.888Z,10.38
2022-12-26T23:09:57.305Z,10.70
2022-12-26T23:13:15.990Z,9.70
2022-12-26T23:16:38.215Z,10.40
2022-12-26T23:20:12.307Z,11.20
2022-12-26T23:23:29.983Z,10.38
2022-12-26T23:26:47.487Z,9.38
2022-12-26T23:30:18.660Z,9.88
2022-12-26T23:33:35.173Z,9.38
2022-12-26T23:36:53.916Z,8.55
2022-12-26T23:40:13.950Z,8.23
2022-12-26T23:43:30.732Z,7.45
2022-12-26T23:46:47.742Z,7.53
2022-12-26T23:50:04.236Z,7.20
2022-12-26T23:53:20.717Z,6.88
2022-12-26T23:56:37.085Z,6.20
2022-12-26T23:59:54.657Z,5.90
